Time;durP1;ratioP1;P1;durP2;ratioP2;P2;SDS_P1;SDS_P2;PMS_P1;PMS_P2;Temp;Humidity;BMP_temperature;BMP_pressure;BME280_temperature;BME280_humidity;BME280_pressure;Samples;Min_cycle;Max_cycle;Signal;HPM_P1;HPM_P2
2021/08/01 00:01:54;;;;;;;;;;;;;;;20.67;51.47;99499.31;10446361;28;19955;-52
2021/08/01 00:06:56;;;;;;;;;;;;;;;20.65;51.63;99495.97;10450702;28;20420;-52
2021/08/01 00:11:57;;;;;;;;;;;;;;;20.64;51.73;99491.59;10448756;28;19925;-52
2021/08/01 00:17:00;;;;;;;;;;;;;;;20.60;51.72;99480.38;10443817;28;20060;-53
2021/08/01 00:22:01;;;;;;;;;;;;;;;20.55;52.02;99482.03;10440789;28;20028;-52
2021/08/01 00:27:03;;;;;;;;;;;;;;;20.47;52.70;99481.19;10440450;28;20043;-52
2021/08/01 00:32:05;;;;;;;;;;;;;;;20.43;52.69;99479.97;10442731;28;19928;-52
2021/08/01 00:37:06;;;;;;;;;;;;;;;20.41;53.18;99481.19;10455174;28;20017;-52
2021/08/01 00:42:08;;;;;;;;;;;;;;;20.40;53.54;99474.97;10452491;28;20005;-52
2021/08/01 00:47:09;;;;;;;;;;;;;;;20.35;53.71;99466.63;10456940;28;19964;-55
2021/08/01 00:52:11;;;;;;;;;;;;;;;20.29;53.99;99456.66;10464546;28;20157;-51
2021/08/01 00:57:12;;;;;;;;;;;;;;;20.20;54.70;99457.91;10448174;28;19955;-52
2021/08/01 01:02:16;;;;;;;;;;;;;;;20.11;55.14;99455.38;10456545;28;19981;-52
2021/08/01 01:07:37;;;;;;;;;;;;;;;20.10;55.10;99455.59;10464196;28;20019;-53
2021/08/01 01:12:44;;;;;;;;;;;;;;;20.09;55.27;99456.63;10451740;28;19973;-53
2021/08/01 01:17:47;;;;;;;;;;;;;;;20.11;55.42;99451.84;10452703;28;19925;-52
2021/08/01 01:23:07;;;;;;;;;;;;;;;20.04;55.70;99453.69;10447554;28;20086;-52
2021/08/01 01:28:11;;;;;;;;;;;;;;;19.97;56.08;99453.69;10453270;28;19981;-51
2021/08/01 01:33:17;;;;;;;;;;;;;;;19.96;56.25;99449.31;10461077;28;19955;-52
2021/08/01 01:38:19;;;;;;;;;;;;;;;19.98;56.28;99444.53;10451926;28;19924;-51
2021/08/01 01:43:24;;;;;;;;;;;;;;;19.92;56.52;99445.38;10443724;28;20021;-52
2021/08/01 01:48:25;;;;;;;;;;;;;;;19.87;56.65;99448.69;10445289;28;20203;-52
2021/08/01 01:53:26;;;;;;;;;;;;;;;19.81;56.72;99430.59;10452274;28;20389;-52
2021/08/01 01:58:29;;;;;;;;;;;;;;;19.74;56.92;99444.06;10447685;28;20033;-53
2021/08/01 02:03:30;;;;;;;;;;;;;;;19.68;57.29;99452.97;10453874;28;19960;-53
2021/08/01 02:08:39;;;;;;;;;;;;;;;19.61;57.34;99438.63;10455024;28;19935;-53
2021/08/01 02:13:45;;;;;;;;;;;;;;;19.54;57.90;99438.56;10451537;28;20047;-53
2021/08/01 02:18:50;;;;;;;;;;;;;;;19.60;57.68;99456.66;10439372;28;19972;-53
2021/08/01 02:23:53;;;;;;;;;;;;;;;19.47;57.87;99450.38;10449030;28;19983;-53
2021/08/01 02:28:55;;;;;;;;;;;;;;;19.40;58.42;99464.69;10459814;28;20199;-52
2021/08/01 02:33:57;;;;;;;;;;;;;;;19.45;58.32;99457.84;10453573;28;20039;-53
2021/08/01 02:38:59;;;;;;;;;;;;;;;19.51;58.23;99462.44;10453395;28;19924;-52
2021/08/01 02:44:02;;;;;;;;;;;;;;;19.52;58.20;99458.72;10441964;28;20000;-54
2021/08/01 02:49:05;;;;;;;;;;;;;;;19.57;58.15;99464.34;10455472;28;20035;-53
2021/08/01 02:54:07;;;;;;;;;;;;;;;19.51;58.19;99462.44;10441421;28;19948;-52
2021/08/01 02:59:10;;;;;;;;;;;;;;;19.48;58.25;99460.97;10433465;28;19967;-52
2021/08/01 03:04:14;;;;;;;;;;;;;;;19.49;57.91;99446.44;10452555;28;20005;-52
2021/08/01 03:09:15;;;;;;;;;;;;;;;19.46;58.19;99451.44;10445851;28;20025;-53
2021/08/01 03:14:17;;;;;;;;;;;;;;;19.47;58.26;99469.28;10452356;28;19956;-53
2021/08/01 03:19:18;;;;;;;;;;;;;;;19.49;58.05;99464.53;10450871;28;20001;-52
2021/08/01 03:24:19;;;;;;;;;;;;;;;19.49;58.30;99453.72;10455628;28;20010;-53
2021/08/01 03:29:21;;;;;;;;;;;;;;;19.40;58.54;99458.47;10450856;28;19971;-53
2021/08/01 03:34:22;;;;;;;;;;;;;;;19.36;58.71;99463.41;10455675;28;20104;-52
2021/08/01 03:39:23;;;;;;;;;;;;;;;19.35;58.85;99467.16;10453647;28;20451;-51
2021/08/01 03:44:25;;;;;;;;;;;;;;;19.33;59.14;99454.88;10456969;28;19982;-52
2021/08/01 03:49:26;;;;;;;;;;;;;;;19.34;58.98;99459.25;10450729;28;20035;-53
2021/08/01 03:54:28;;;;;;;;;;;;;;;19.35;58.89;99456.38;10449832;28;20015;-53
2021/08/01 03:59:33;;;;;;;;;;;;;;;19.37;58.85;99459.69;10447650;28;19974;-53
2021/08/01 04:04:34;;;;;;;;;;;;;;;19.37;59.15;99451.59;10424696;28;20101;-52
2021/08/01 04:09:35;;;;;;;;;;;;;;;19.38;59.13;99455.09;10437539;28;19964;-52
2021/08/01 04:14:37;;;;;;;;;;;;;;;19.40;59.23;99443.09;10454396;28;20593;-53
2021/08/01 04:19:38;;;;;;;;;;;;;;;19.40;59.52;99451.19;10448698;28;19925;-53
2021/08/01 04:24:40;;;;;;;;;;;;;;;19.39;59.58;99454.91;10454730;28;19975;-53
2021/08/01 04:29:41;;;;;;;;;;;;;;;19.41;59.90;99450.16;10438634;28;20007;-53
2021/08/01 04:34:42;;;;;;;;;;;;;;;19.42;59.91;99457.22;10441334;28;19960;-53
2021/08/01 04:39:44;;;;;;;;;;;;;;;19.43;60.18;99453.47;10441941;28;19960;-52
2021/08/01 04:44:45;;;;;;;;;;;;;;;19.42;60.34;99457.22;10453570;27;20514;-53
2021/08/01 04:49:48;;;;;;;;;;;;;;;19.42;60.57;99462.59;10439888;28;20216;-52
2021/08/01 04:54:49;;;;;;;;;;;;;;;19.43;60.78;99464.28;10440564;28;19929;-53
2021/08/01 04:59:50;;;;;;;;;;;;;;;19.39;61.03;99463.00;10446726;28;20027;-56
2021/08/01 05:04:52;;;;;;;;;;;;;;;19.32;61.18;99467.56;10442879;28;20015;-53
2021/08/01 05:09:53;;;;;;;;;;;;;;;19.36;60.99;99470.69;10458559;28;19956;-52
2021/08/01 05:14:54;;;;;;;;;;;;;;;19.50;60.69;99468.88;10452536;28;19925;-52
2021/08/01 05:19:56;;;;;;;;;;;;;;;19.62;60.73;99478.06;10454321;28;19932;-53
2021/08/01 05:24:57;;;;;;;;;;;;;;;19.72;60.34;99465.00;10452846;28;19925;-52
2021/08/01 05:29:58;;;;;;;;;;;;;;;19.87;60.04;99466.75;10458613;28;19951;-53
2021/08/01 05:35:00;;;;;;;;;;;;;;;19.83;59.90;99468.19;10446168;28;20009;-52
2021/08/01 05:40:02;;;;;;;;;;;;;;;19.90;60.33;99479.84;10463112;28;20365;-52
2021/08/01 05:45:07;;;;;;;;;;;;;;;19.91;60.31;99474.25;10448616;28;20535;-60
2021/08/01 05:50:09;;;;;;;;;;;;;;;19.92;60.12;99484.03;10447877;28;19924;-60
2021/08/01 05:55:10;;;;;;;;;;;;;;;20.05;59.88;99476.97;10448880;28;20507;-61
2021/08/01 06:00:12;;;;;;;;;;;;;;;20.20;59.71;99474.09;10470748;28;19997;-61
2021/08/01 06:05:13;;;;;;;;;;;;;;;20.27;59.19;99485.75;10481357;27;20520;-61
2021/08/01 06:10:15;;;;;;;;;;;;;;;20.34;58.84;99475.78;10480738;28;19959;-61
2021/08/01 06:15:16;;;;;;;;;;;;;;;20.46;58.76;99484.09;10477009;28;19955;-61
2021/08/01 06:20:17;;;;;;;;;;;;;;;20.38;58.80;99490.53;10477139;28;20032;-61
2021/08/01 06:25:19;;;;;;;;;;;;;;;20.54;58.25;99480.38;10456413;28;19981;-61
2021/08/01 06:30:20;;;;;;;;;;;;;;;20.61;58.77;99492.00;10478906;28;20401;-61
2021/08/01 06:35:21;;;;;;;;;;;;;;;20.65;58.38;99495.97;10481489;22;20003;-54
2021/08/01 06:40:23;;;;;;;;;;;;;;;20.70;58.09;99500.78;10412137;28;19931;-54
2021/08/01 06:45:24;;;;;;;;;;;;;;;20.70;57.32;99503.50;10415413;28;19939;-55
2021/08/01 06:50:25;;;;;;;;;;;;;;;20.68;57.77;99513.69;10410847;28;19960;-55
2021/08/01 06:55:27;;;;;;;;;;;;;;;20.58;58.58;99514.91;10399899;28;19932;-56
2021/08/01 07:00:28;;;;;;;;;;;;;;;20.65;58.37;99513.03;10415176;28;20147;-58
2021/08/01 07:05:30;;;;;;;;;;;;;;;20.77;58.33;99518.66;10418661;28;20040;-58
2021/08/01 07:10:32;;;;;;;;;;;;;;;20.90;57.93;99517.03;10418166;28;19953;-55
2021/08/01 07:15:33;;;;;;;;;;;;;;;20.88;56.94;99519.91;10415211;28;19932;-53
2021/08/01 07:20:36;;;;;;;;;;;;;;;21.01;56.70;99514.50;10417767;28;19986;-56
2021/08/01 07:25:37;;;;;;;;;;;;;;;21.18;56.54;99520.31;10393593;28;19939;-55
2021/08/01 07:30:38;;;;;;;;;;;;;;;21.13;56.31;99517.41;10391115;28;19928;-55
2021/08/01 07:35:41;;;;;;;;;;;;;;;21.28;55.89;99514.44;10389842;28;20487;-54
2021/08/01 07:40:42;;;;;;;;;;;;;;;21.42;55.72;99507.13;10416988;28;20009;-55
2021/08/01 07:45:43;;;;;;;;;;;;;;;21.63;54.84;99513.34;10414031;28;20357;-56
2021/08/01 07:50:45;;;;;;;;;;;;;;;21.67;54.56;99514.59;10419465;28;19932;-58
2021/08/01 07:55:46;;;;;;;;;;;;;;;21.52;54.78;99515.66;10416575;28;19968;-57
2021/08/01 08:00:48;;;;;;;;;;;;;;;21.67;54.75;99506.47;10422716;28;19960;-53
2021/08/01 08:05:49;;;;;;;;;;;;;;;21.60;53.65;99506.47;10418137;28;19936;-58
2021/08/01 08:10:51;;;;;;;;;;;;;;;21.37;54.32;99517.78;10410294;28;19964;-55
2021/08/01 08:15:52;;;;;;;;;;;;;;;21.12;54.86;99514.91;10405283;28;20018;-58
2021/08/01 08:20:54;;;;;;;;;;;;;;;21.39;54.79;99510.25;10397988;28;19929;-59
2021/08/01 08:25:56;;;;;;;;;;;;;;;21.76;53.05;99507.88;10404977;28;19956;-54
2021/08/01 08:30:59;;;;;;;;;;;;;;;22.35;52.09;99507.78;10422742;28;19999;-57
2021/08/01 08:36:00;;;;;;;;;;;;;;;22.50;51.04;99502.06;10415558;28;20016;-52
2021/08/01 08:41:01;;;;;;;;;;;;;;;22.13;50.43;99505.41;10408477;28;20504;-57
2021/08/01 08:46:03;;;;;;;;;;;;;;;22.23;49.69;99513.03;10414411;28;20015;-59
2021/08/01 08:51:08;;;;;;;;;;;;;;;22.78;49.12;99513.31;10412896;28;19955;-61
2021/08/01 08:56:10;;;;;;;;;;;;;;;22.84;48.99;99508.88;10410939;28;19929;-53
2021/08/01 09:01:12;;;;;;;;;;;;;;;22.75;47.71;99521.06;10418100;28;20439;-53
2021/08/01 09:06:14;;;;;;;;;;;;;;;22.76;47.90;99514.59;10418862;28;20467;-58
2021/08/01 09:11:15;;;;;;;;;;;;;;;22.81;47.98;99525.59;10405013;28;19967;-60
2021/08/01 09:16:18;;;;;;;;;;;;;;;23.13;48.41;99525.56;10420461;28;20043;-56
2021/08/01 09:21:29;;;;;;;;;;;;;;;23.23;48.13;99528.59;10399250;28;20041;-54
2021/08/01 09:26:44;;;;;;;;;;;;;;;23.77;46.82;99528.00;10413692;28;20433;-56
2021/08/01 09:31:56;;;;;;;;;;;;;;;24.07;46.08;99521.81;10392373;28;20846;-56
2021/08/01 09:36:58;;;;;;;;;;;;;;;23.98;46.24;99522.09;10402168;28;19932;-59
2021/08/01 09:42:00;;;;;;;;;;;;;;;23.67;44.52;99508.69;10424300;28;19994;-54
2021/08/01 09:47:02;;;;;;;;;;;;;;;24.37;44.76;99512.81;10422235;28;19932;-57
2021/08/01 09:52:03;;;;;;;;;;;;;;;25.28;42.10;99518.00;10425191;28;19933;-56
2021/08/01 09:57:05;;;;;;;;;;;;;;;25.43;40.29;99510.19;10407995;28;19932;-57
2021/08/01 10:02:08;;;;;;;;;;;;;;;25.25;40.54;99511.13;10407151;28;19964;-59
2021/08/01 10:07:10;;;;;;;;;;;;;;;25.28;41.08;99498.94;10407624;28;19936;-56
2021/08/01 10:12:12;;;;;;;;;;;;;;;25.23;40.18;99515.97;10401979;28;20436;-58
2021/08/01 10:17:14;;;;;;;;;;;;;;;24.98;41.60;99514.34;10420124;28;20802;-57
2021/08/01 10:22:16;;;;;;;;;;;;;;;25.04;41.26;99507.94;10418641;28;19968;-53
2021/08/01 10:27:19;;;;;;;;;;;;;;;25.12;41.27;99508.66;10420388;28;19968;-58
2021/08/01 10:32:22;;;;;;;;;;;;;;;25.67;39.62;99474.72;10416289;28;20016;-54
2021/08/01 10:37:26;;;;;;;;;;;;;;;25.77;39.65;99503.00;10418361;28;20002;-54
2021/08/01 10:42:28;;;;;;;;;;;;;;;26.53;38.06;99487.47;10421241;28;20502;-58
2021/08/01 10:47:29;;;;;;;;;;;;;;;26.74;37.19;99494.97;10415902;28;19982;-53
2021/08/01 10:52:33;;;;;;;;;;;;;;;27.15;37.17;99492.84;10414406;28;20403;-53
2021/08/01 10:57:35;;;;;;;;;;;;;;;27.03;37.71;99489.41;10397836;28;20290;-52
2021/08/01 11:02:37;;;;;;;;;;;;;;;26.07;39.36;99488.31;10418038;28;19948;-60
2021/08/01 11:07:38;;;;;;;;;;;;;;;25.63;39.48;99477.09;10414669;28;20413;-53
2021/08/01 11:12:41;;;;;;;;;;;;;;;26.51;38.38;99476.81;10422980;28;19954;-56
2021/08/01 11:17:43;;;;;;;;;;;;;;;27.09;36.90;99472.00;10414252;28;20563;-58
2021/08/01 11:22:45;;;;;;;;;;;;;;;26.75;36.61;99465.75;10422993;28;19939;-52
2021/08/01 11:28:04;;;;;;;;;;;;;;;26.82;37.14;99460.97;10402720;28;20442;-54
2021/08/01 11:33:06;;;;;;;;;;;;;;;27.26;36.13;99452.84;10408142;28;19928;-55
2021/08/01 11:38:08;;;;;;;;;;;;;;;26.77;36.59;99447.25;10408648;28;20023;-58
2021/08/01 11:43:09;;;;;;;;;;;;;;;26.46;37.27;99447.53;10409442;28;19924;-55
2021/08/01 11:48:17;;;;;;;;;;;;;;;27.16;36.23;99439.88;10420056;28;20086;-54
2021/08/01 11:53:18;;;;;;;;;;;;;;;27.23;35.52;99449.78;10416242;28;19998;-57
2021/08/01 11:58:20;;;;;;;;;;;;;;;27.80;35.49;99438.50;10399884;28;19987;-54
2021/08/01 12:03:26;;;;;;;;;;;;;;;27.56;35.40;99437.94;10409498;28;20412;-52
2021/08/01 12:08:36;;;;;;;;;;;;;;;26.84;36.59;99447.06;10402084;28;20731;-59
2021/08/01 12:13:38;;;;;;;;;;;;;;;26.75;36.61;99428.38;10416205;28;21497;-59
2021/08/01 12:18:39;;;;;;;;;;;;;;;26.87;36.18;99435.63;10386175;28;19925;-53
2021/08/01 12:23:41;;;;;;;;;;;;;;;27.11;36.34;99425.31;10382109;28;19932;-55
2021/08/01 12:28:42;;;;;;;;;;;;;;;27.19;36.63;99421.31;10407467;28;20000;-58
2021/08/01 12:33:43;;;;;;;;;;;;;;;27.45;35.03;99415.13;10420133;28;19985;-57
2021/08/01 12:38:45;;;;;;;;;;;;;;;26.96;36.05;99412.28;10411847;28;20590;-55
2021/08/01 12:43:47;;;;;;;;;;;;;;;26.38;37.34;99407.03;10415032;28;19929;-58
2021/08/01 12:48:48;;;;;;;;;;;;;;;26.19;36.67;99409.19;10424634;28;19967;-58
2021/08/01 12:53:51;;;;;;;;;;;;;;;26.43;36.36;99398.94;10416053;28;20074;-57
2021/08/01 12:59:08;;;;;;;;;;;;;;;26.53;36.70;99398.28;10415572;28;19935;-60
2021/08/01 13:04:10;;;;;;;;;;;;;;;26.91;35.66;99391.19;10416544;28;20097;-57
2021/08/01 13:09:18;;;;;;;;;;;;;;;26.75;36.10;99389.34;10424748;28;20465;-54
2021/08/01 13:14:43;;;;;;;;;;;;;;;26.43;37.14;99393.47;10408795;28;19955;-54
2021/08/01 13:19:45;;;;;;;;;;;;;;;26.05;36.66;99402.41;10418478;28;19993;-54
2021/08/01 13:24:52;;;;;;;;;;;;;;;26.07;37.48;99395.63;10419367;28;19998;-53
2021/08/01 13:30:13;;;;;;;;;;;;;;;26.36;37.44;99381.94;10416737;28;19924;-55
2021/08/01 13:35:22;;;;;;;;;;;;;;;26.42;35.99;99391.84;10415940;28;20011;-60
2021/08/01 13:40:27;;;;;;;;;;;;;;;26.23;36.20;99393.16;10413378;28;20019;-61
2021/08/01 13:45:29;;;;;;;;;;;;;;;26.16;36.24;99387.03;10417104;28;19964;-62
2021/08/01 13:50:31;;;;;;;;;;;;;;;25.88;37.03;99392.28;10418170;28;20022;-60
2021/08/01 13:55:33;;;;;;;;;;;;;;;26.27;36.43;99375.22;10415635;28;20249;-60
2021/08/01 14:00:35;;;;;;;;;;;;;;;26.24;36.00;99372.97;10417439;28;19932;-59
2021/08/01 14:05:37;;;;;;;;;;;;;;;26.23;35.33;99361.25;10419728;28;20387;-59
2021/08/01 14:10:39;;;;;;;;;;;;;;;26.28;34.27;99352.31;10419599;28;20010;-63
2021/08/01 14:15:40;;;;;;;;;;;;;;;26.23;33.36;99382.25;10421027;28;19982;-59
2021/08/01 14:20:41;;;;;;;;;;;;;;;26.17;33.95;99369.63;10421467;28;19990;-60
2021/08/01 14:25:43;;;;;;;;;;;;;;;25.52;34.55;99372.53;10413283;28;22121;-59
2021/08/01 14:30:44;;;;;;;;;;;;;;;25.37;35.03;99361.34;10421135;28;19964;-59
2021/08/01 14:35:46;;;;;;;;;;;;;;;25.23;35.89;99367.03;10395228;28;20347;-59
2021/08/01 14:40:48;;;;;;;;;;;;;;;25.18;35.20;99360.69;10414611;28;19940;-61
2021/08/01 14:45:49;;;;;;;;;;;;;;;25.57;34.91;99369.09;10416668;28;20557;-59
2021/08/01 14:50:52;;;;;;;;;;;;;;;25.75;34.12;99376.22;10413196;28;20035;-56
2021/08/01 14:55:56;;;;;;;;;;;;;;;25.94;34.42;99385.84;10389972;28;19984;-54
2021/08/01 15:01:05;;;;;;;;;;;;;;;25.80;33.41;99389.13;10414139;28;20019;-53
2021/08/01 15:06:07;;;;;;;;;;;;;;;25.89;33.46;99380.28;10399973;28;20410;-54
2021/08/01 15:11:13;;;;;;;;;;;;;;;26.11;33.21;99374.97;10401302;28;20007;-52
2021/08/01 15:16:16;;;;;;;;;;;;;;;25.84;33.53;99390.28;10412984;28;24075;-54
2021/08/01 15:21:19;;;;;;;;;;;;;;;25.58;34.27;99395.25;10411684;28;20154;-53
2021/08/01 15:26:21;;;;;;;;;;;;;;;25.62;33.94;99395.59;10419160;28;20485;-54
2021/08/01 15:31:25;;;;;;;;;;;;;;;25.52;33.84;99388.88;10411945;28;20023;-54
2021/08/01 15:36:26;;;;;;;;;;;;;;;25.45;34.26;99398.28;10416186;28;20351;-54
2021/08/01 15:41:28;;;;;;;;;;;;;;;25.52;34.29;99393.50;10413215;28;20017;-54
2021/08/01 15:46:30;;;;;;;;;;;;;;;25.54;34.78;99392.19;10402719;28;20333;-54
2021/08/01 15:51:33;;;;;;;;;;;;;;;25.47;34.51;99396.13;10414414;28;19933;-55
2021/08/01 15:56:37;;;;;;;;;;;;;;;25.07;35.25;99408.63;10406784;28;19947;-54
2021/08/01 16:01:45;;;;;;;;;;;;;;;24.96;35.32;99396.69;10413990;28;19924;-55
2021/08/01 16:06:47;;;;;;;;;;;;;;;24.63;35.34;99398.13;10418241;28;19929;-55
2021/08/01 16:11:56;;;;;;;;;;;;;;;24.49;35.52;99410.28;10421000;28;20058;-54
2021/08/01 16:17:09;;;;;;;;;;;;;;;24.63;35.66;99402.75;10417571;28;19947;-54
2021/08/01 16:22:11;;;;;;;;;;;;;;;24.65;34.82;99414.22;10334817;28;19937;-55
2021/08/01 16:27:13;;;;;;;;;;;;;;;24.51;34.61;99400.00;10349771;28;19961;-54
2021/08/01 16:32:14;;;;;;;;;;;;;;;24.49;35.12;99402.94;10341912;28;19955;-55
2021/08/01 16:37:19;;;;;;;;;;;;;;;24.44;35.65;99404.72;10350235;28;20013;-55
2021/08/01 16:42:36;;;;;;;;;;;;;;;24.21;35.55;99406.34;10347832;28;19933;-55
2021/08/01 16:47:43;;;;;;;;;;;;;;;24.01;35.99;99422.97;10342340;28;19968;-54
2021/08/01 16:52:50;;;;;;;;;;;;;;;23.98;36.19;99418.81;10344113;28;20016;-54
2021/08/01 16:57:55;;;;;;;;;;;;;;;23.88;36.41;99425.88;10345165;28;20021;-55
2021/08/01 17:03:11;;;;;;;;;;;;;;;23.88;36.75;99436.75;10347427;28;20548;-54
2021/08/01 17:08:13;;;;;;;;;;;;;;;23.87;37.24;99444.09;10350886;28;19935;-54
2021/08/01 17:13:17;;;;;;;;;;;;;;;23.81;37.66;99455.84;10348959;28;19992;-54
2021/08/01 17:18:20;;;;;;;;;;;;;;;23.86;37.68;99452.47;10347950;28;19940;-54
2021/08/01 17:23:21;;;;;;;;;;;;;;;23.73;38.22;99462.41;10349598;28;19972;-55
2021/08/01 17:28:22;;;;;;;;;;;;;;;23.43;39.43;99475.94;10345895;28;19969;-55
2021/08/01 17:33:26;;;;;;;;;;;;;;;23.20;40.17;99473.94;10346193;28;20046;-54
2021/08/01 17:38:29;;;;;;;;;;;;;;;22.88;41.29;99496.53;10338012;28;19987;-54
2021/08/01 17:43:31;;;;;;;;;;;;;;;22.82;41.19;99494.72;10350152;28;19933;-55
2021/08/01 17:48:33;;;;;;;;;;;;;;;22.53;41.90;99497.03;10347461;28;20021;-54
2021/08/01 17:53:35;;;;;;;;;;;;;;;22.35;43.10;99505.09;10336243;28;19934;-54
2021/08/01 17:58:38;;;;;;;;;;;;;;;22.60;42.58;99516.78;10349199;28;20011;-54
2021/08/01 18:03:40;;;;;;;;;;;;;;;22.58;42.53;99524.31;10349632;28;20412;-54
2021/08/01 18:08:48;;;;;;;;;;;;;;;22.54;43.15;99542.06;10348062;28;19956;-54
2021/08/01 18:13:59;;;;;;;;;;;;;;;22.12;44.78;99557.94;10353666;28;19957;-54
2021/08/01 18:19:03;;;;;;;;;;;;;;;22.14;45.10;99561.25;10344951;28;19949;-54
2021/08/01 18:24:05;;;;;;;;;;;;;;;21.78;46.94;99578.09;10345447;28;19973;-54
2021/08/01 18:29:09;;;;;;;;;;;;;;;21.29;49.89;99596.50;10341668;28;20555;-54
2021/08/01 18:34:14;;;;;;;;;;;;;;;21.04;51.50;99594.41;10345573;28;21505;-55
2021/08/01 18:39:16;;;;;;;;;;;;;;;20.68;52.89;99594.81;10347935;28;20039;-54
2021/08/01 18:44:17;;;;;;;;;;;;;;;20.65;52.43;99596.88;10343502;28;19929;-55
2021/08/01 18:49:19;;;;;;;;;;;;;;;20.61;52.44;99605.56;10342803;28;20527;-54
2021/08/01 18:54:21;;;;;;;;;;;;;;;20.77;52.42;99616.03;10346472;28;19961;-54
2021/08/01 18:59:23;;;;;;;;;;;;;;;20.62;52.34;99623.47;10344724;28;20011;-54
2021/08/01 19:04:25;;;;;;;;;;;;;;;20.76;52.44;99636.03;10340355;28;20024;-54
2021/08/01 19:09:28;;;;;;;;;;;;;;;20.71;53.59;99637.66;10346480;28;20064;-54
2021/08/01 19:14:30;;;;;;;;;;;;;;;20.48;54.47;99634.25;10340785;28;20019;-54
2021/08/01 19:19:34;;;;;;;;;;;;;;;19.80;56.43;99642.25;10344087;28;24959;-54
2021/08/01 19:24:42;;;;;;;;;;;;;;;19.63;58.31;99648.97;10335602;28;20089;-54
2021/08/01 19:29:46;;;;;;;;;;;;;;;19.98;57.96;99649.81;10345244;28;19964;-54
2021/08/01 19:34:52;;;;;;;;;;;;;;;20.08;56.77;99649.47;10344384;28;19925;-54
2021/08/01 19:39:56;;;;;;;;;;;;;;;20.07;55.56;99659.44;10342285;28;19975;-54
2021/08/01 19:44:58;;;;;;;;;;;;;;;20.07;56.05;99672.97;10352967;28;20377;-54
2021/08/01 19:50:00;;;;;;;;;;;;;;;20.30;55.17;99674.53;10352330;28;19932;-54
2021/08/01 19:55:02;;;;;;;;;;;;;;;20.42;54.56;99672.91;10331267;28;19984;-58
2021/08/01 20:00:04;;;;;;;;;;;;;;;20.32;53.81;99683.25;10342393;28;20003;-54
2021/08/01 20:05:08;;;;;;;;;;;;;;;20.12;53.94;99677.75;10336531;28;20653;-54
2021/08/01 20:10:09;;;;;;;;;;;;;;;20.02;53.91;99683.50;10337828;28;20606;-54
2021/08/01 20:15:12;;;;;;;;;;;;;;;20.05;53.45;99683.09;10326898;28;19935;-54
2021/08/01 20:20:13;;;;;;;;;;;;;;;20.19;53.27;99683.19;10325673;28;19929;-55
2021/08/01 20:25:14;;;;;;;;;;;;;;;20.14;53.36;99681.91;10337820;28;19937;-55
2021/08/01 20:30:16;;;;;;;;;;;;;;;20.12;53.91;99678.59;10353773;28;20139;-54
2021/08/01 20:35:17;;;;;;;;;;;;;;;19.93;54.33;99673.91;10351556;28;20003;-55
2021/08/01 20:40:18;;;;;;;;;;;;;;;20.00;54.28;99679.38;10351816;28;19929;-54
2021/08/01 20:45:21;;;;;;;;;;;;;;;19.89;54.77;99694.22;10342929;28;20139;-54
2021/08/01 20:50:22;;;;;;;;;;;;;;;20.05;54.74;99699.31;10331238;28;20019;-56
2021/08/01 20:55:24;;;;;;;;;;;;;;;19.85;55.66;99698.38;10349578;28;20017;-54
2021/08/01 21:00:27;;;;;;;;;;;;;;;19.89;56.08;99705.88;10341910;28;19929;-54
2021/08/01 21:05:28;;;;;;;;;;;;;;;19.76;56.21;99698.50;10341487;28;20347;-54
2021/08/01 21:10:30;;;;;;;;;;;;;;;19.70;56.50;99701.16;10345614;28;19929;-54
2021/08/01 21:15:31;;;;;;;;;;;;;;;19.80;56.95;99707.03;10348420;28;20004;-60
2021/08/01 21:20:33;;;;;;;;;;;;;;;19.97;56.36;99710.28;10352401;28;19991;-61
2021/08/01 21:25:35;;;;;;;;;;;;;;;19.99;56.63;99716.31;10362097;28;19991;-61
2021/08/01 21:30:36;;;;;;;;;;;;;;;20.06;56.26;99713.69;10353149;28;20401;-61
2021/08/01 21:35:38;;;;;;;;;;;;;;;19.92;57.00;99716.28;10352482;28;19995;-61
2021/08/01 21:40:39;;;;;;;;;;;;;;;20.00;56.94;99719.88;10364116;28;20015;-61
2021/08/01 21:45:41;;;;;;;;;;;;;;;20.13;56.41;99719.94;10369809;28;19929;-61
2021/08/01 21:50:42;;;;;;;;;;;;;;;20.06;57.02;99728.00;10366089;28;20037;-61
2021/08/01 21:55:43;;;;;;;;;;;;;;;20.06;56.79;99729.88;10371232;28;19933;-60
2021/08/01 22:00:45;;;;;;;;;;;;;;;20.07;56.79;99735.09;10358829;28;19964;-60
2021/08/01 22:05:52;;;;;;;;;;;;;;;19.95;56.76;99725.84;10364894;28;20047;-60
2021/08/01 22:10:53;;;;;;;;;;;;;;;19.99;56.90;99731.72;10362804;28;25250;-60
2021/08/01 22:15:55;;;;;;;;;;;;;;;20.11;56.48;99736.34;10364332;28;19941;-60
2021/08/01 22:20:56;;;;;;;;;;;;;;;20.10;56.58;99750.91;10360855;28;19933;-60
2021/08/01 22:25:58;;;;;;;;;;;;;;;20.06;56.51;99748.78;10355091;28;19961;-61
2021/08/01 22:31:00;;;;;;;;;;;;;;;20.02;56.33;99759.16;10356609;28;19955;-61
2021/08/01 22:36:03;;;;;;;;;;;;;;;19.96;56.78;99757.22;10347264;28;20313;-60
2021/08/01 22:41:05;;;;;;;;;;;;;;;19.98;56.51;99768.66;10358000;28;19976;-61
2021/08/01 22:46:07;;;;;;;;;;;;;;;19.90;57.07;99760.72;10365608;28;19978;-60
2021/08/01 22:51:10;;;;;;;;;;;;;;;19.96;57.17;99768.03;10366361;28;20321;-60
2021/08/01 22:56:12;;;;;;;;;;;;;;;19.96;56.60;99770.75;10358038;28;19952;-60
2021/08/01 23:01:13;;;;;;;;;;;;;;;19.95;56.84;99769.06;10365248;28;19940;-64
2021/08/01 23:06:20;;;;;;;;;;;;;;;20.01;56.80;99771.00;10362605;28;19925;-61
2021/08/01 23:11:27;;;;;;;;;;;;;;;20.04;56.75;99767.91;10363987;28;19925;-61
2021/08/01 23:16:47;;;;;;;;;;;;;;;19.88;56.97;99773.59;10357895;28;19929;-60
2021/08/01 23:21:50;;;;;;;;;;;;;;;19.95;56.69;99774.47;10363234;28;19929;-61
2021/08/01 23:26:52;;;;;;;;;;;;;;;20.01;56.54;99779.09;10348117;28;20020;-59
2021/08/01 23:31:53;;;;;;;;;;;;;;;20.02;56.81;99774.53;10359621;28;20402;-66
2021/08/01 23:36:55;;;;;;;;;;;;;;;19.94;56.67;99778.22;10363577;28;19929;-60
2021/08/01 23:41:58;;;;;;;;;;;;;;;19.90;57.31;99779.63;10361377;28;20366;-59
2021/08/01 23:47:00;;;;;;;;;;;;;;;19.94;56.89;99772.81;10361940;28;19952;-59
2021/08/01 23:52:05;;;;;;;;;;;;;;;19.83;57.21;99776.91;10354624;28;20036;-59
2021/08/01 23:57:17;;;;;;;;;;;;;;;19.72;57.13;99769.28;10363928;28;19952;-59
